createdAt,value
2019-02-18T00:00:37.585Z,5.28
2019-02-18T00:03:07.408Z,5.24
2019-02-18T00:05:35.359Z,5.17
2019-02-18T00:08:03.407Z,5.12
2019-02-18T00:10:31.352Z,5.08
2019-02-18T00:12:59.173Z,5.03
2019-02-18T00:15:27.035Z,4.97
2019-02-18T00:17:55.051Z,4.93
2019-02-18T00:20:22.936Z,4.90
2019-02-18T00:22:50.867Z,4.84
2019-02-18T00:25:18.642Z,4.81
2019-02-18T00:27:46.566Z,4.76
2019-02-18T00:30:24.208Z,4.74
2019-02-18T00:32:52.033Z,4.69
2019-02-18T00:35:20.008Z,4.66
2019-02-18T00:37:47.942Z,4.60
2019-02-18T00:40:15.825Z,4.55
2019-02-18T00:42:43.647Z,4.54
2019-02-18T00:45:11.711Z,4.51
2019-02-18T00:47:39.836Z,4.49
2019-02-18T00:50:07.917Z,4.46
2019-02-18T00:52:35.955Z,4.44
2019-02-18T00:55:04.074Z,4.43
2019-02-18T00:57:31.914Z,4.41
2019-02-18T00:59:59.764Z,4.38
2019-02-18T01:02:27.866Z,4.37
2019-02-18T01:04:55.965Z,4.30
2019-02-18T01:07:34.218Z,4.23
2019-02-18T01:09:53.835Z,4.26
2019-02-18T01:12:22.219Z,4.24
2019-02-18T01:14:50.703Z,4.24
2019-02-18T01:17:18.461Z,4.19
2019-02-18T01:19:46.298Z,4.16
2019-02-18T01:22:14.372Z,4.10
2019-02-18T01:24:42.350Z,4.06
2019-02-18T01:27:10.237Z,4.09
2019-02-18T01:29:39.201Z,4.10
2019-02-18T01:32:21.183Z,4.08
2019-02-18T01:34:49.024Z,4.06
2019-02-18T01:37:16.968Z,4.03
2019-02-18T01:39:44.959Z,3.98
2019-02-18T01:42:12.805Z,3.89
2019-02-18T01:44:40.719Z,3.80
2019-02-18T01:47:08.469Z,3.77
2019-02-18T01:49:36.610Z,3.76
2019-02-18T01:52:04.574Z,3.79
2019-02-18T01:54:32.493Z,3.82
2019-02-18T01:57:00.319Z,3.79
2019-02-18T01:59:28.380Z,3.74
2019-02-18T02:01:56.315Z,3.69
2019-02-18T02:04:24.293Z,3.66
2019-02-18T02:06:52.093Z,3.64
2019-02-18T02:09:20.018Z,3.61
2019-02-18T02:11:47.807Z,3.57
2019-02-18T02:14:15.886Z,3.54
2019-02-18T02:16:43.802Z,3.53
2019-02-18T02:19:11.792Z,3.51
2019-02-18T02:21:39.649Z,3.49
2019-02-18T02:24:08.058Z,3.48
2019-02-18T02:26:35.933Z,3.45
2019-02-18T02:29:04.128Z,3.42
2019-02-18T02:31:32.143Z,3.39
2019-02-18T02:34:14.022Z,3.35
2019-02-18T02:36:41.840Z,3.31
2019-02-18T02:39:09.729Z,3.28
2019-02-18T02:41:37.623Z,3.26
2019-02-18T02:44:05.695Z,3.20
2019-02-18T02:46:33.645Z,3.21
2019-02-18T02:49:04.719Z,3.22
2019-02-18T02:51:32.538Z,3.15
2019-02-18T02:54:00.378Z,3.09
2019-02-18T02:56:28.257Z,3.10
2019-02-18T02:58:56.076Z,3.10
2019-02-18T03:01:24.263Z,3.10
2019-02-18T03:03:52.129Z,3.13
2019-02-18T03:06:20.059Z,3.13
2019-02-18T03:08:47.950Z,3.13
2019-02-18T03:11:15.778Z,3.10
2019-02-18T03:13:43.575Z,3.06
2019-02-18T03:16:11.527Z,2.98
2019-02-18T03:18:39.351Z,2.98
2019-02-18T03:21:07.294Z,2.98
2019-02-18T03:23:35.169Z,2.97
2019-02-18T03:26:03.168Z,2.96
2019-02-18T03:29:27.644Z,2.95
2019-02-18T03:31:55.568Z,2.92
2019-02-18T03:34:30.641Z,2.90
2019-02-18T03:36:59.067Z,2.92
2019-02-18T03:39:27.025Z,2.94
2019-02-18T03:41:55.119Z,2.95
2019-02-18T03:44:22.865Z,2.96
2019-02-18T03:46:51.679Z,2.91
2019-02-18T03:49:19.453Z,2.89
2019-02-18T03:51:47.267Z,2.87
2019-02-18T03:54:15.347Z,2.86
2019-02-18T03:56:43.274Z,2.85
2019-02-18T03:59:11.356Z,2.83
2019-02-18T04:01:39.703Z,2.82
2019-02-18T04:04:07.660Z,2.80
2019-02-18T04:06:35.589Z,2.77
2019-02-18T04:09:04.601Z,2.74
2019-02-18T04:11:32.465Z,2.73
2019-02-18T04:14:00.295Z,2.72
2019-02-18T04:16:28.144Z,2.71
2019-02-18T04:18:56.065Z,2.66
2019-02-18T04:21:23.848Z,2.63
2019-02-18T04:23:51.658Z,2.63
2019-02-18T04:26:19.410Z,2.61
2019-02-18T04:28:47.927Z,2.61
2019-02-18T04:31:15.834Z,2.55
2019-02-18T04:33:44.457Z,2.53
2019-02-18T04:36:12.236Z,2.54
2019-02-18T04:38:53.617Z,2.50
2019-02-18T04:41:11.906Z,2.45
2019-02-18T04:43:42.017Z,2.45
2019-02-18T04:46:09.486Z,2.44
2019-02-18T04:48:37.412Z,2.42
2019-02-18T04:51:06.180Z,2.41
2019-02-18T04:53:33.973Z,2.38
2019-02-18T04:56:01.808Z,2.35
2019-02-18T04:58:30.410Z,2.30
2019-02-18T05:00:58.319Z,2.28
2019-02-18T05:03:26.151Z,2.24
2019-02-18T05:05:54.170Z,2.21
2019-02-18T05:08:22.125Z,2.18
2019-02-18T05:10:49.880Z,2.14
2019-02-18T05:13:17.774Z,2.09
2019-02-18T05:15:45.522Z,2.06
2019-02-18T05:18:13.921Z,2.00
2019-02-18T05:20:41.815Z,1.99
2019-02-18T05:23:09.749Z,2.01
2019-02-18T05:25:37.507Z,2.00
2019-02-18T05:28:05.516Z,2.00
2019-02-18T05:30:33.357Z,1.97
2019-02-18T05:33:01.186Z,1.93
2019-02-18T05:35:28.971Z,1.94
2019-02-18T05:37:56.979Z,1.91
2019-02-18T05:40:27.650Z,1.88
2019-02-18T05:42:55.485Z,1.86
2019-02-18T05:45:23.283Z,1.85
2019-02-18T05:47:51.024Z,1.80
2019-02-18T05:50:18.920Z,1.78
2019-02-18T05:52:48.724Z,1.77
2019-02-18T05:55:16.536Z,1.73
2019-02-18T05:57:44.411Z,1.73
2019-02-18T06:00:13.401Z,1.73
2019-02-18T06:02:41.218Z,1.72
2019-02-18T06:05:09.242Z,1.72
2019-02-18T06:07:36.969Z,1.70
2019-02-18T06:10:06.101Z,1.69
2019-02-18T06:12:33.870Z,1.66
2019-02-18T06:15:01.781Z,1.65
2019-02-18T06:17:29.555Z,1.64
2019-02-18T06:19:57.354Z,1.66
2019-02-18T06:22:25.095Z,1.66
2019-02-18T06:24:53.059Z,1.66
2019-02-18T06:27:20.879Z,1.66
2019-02-18T06:29:48.778Z,1.65
2019-02-18T06:32:16.517Z,1.64
2019-02-18T06:34:44.489Z,1.65
2019-02-18T06:37:12.310Z,1.66
2019-02-18T06:39:41.681Z,1.67
2019-02-18T06:42:11.294Z,1.68
2019-02-18T06:44:45.784Z,1.67
2019-02-18T06:47:19.433Z,1.68
2019-02-18T06:49:47.260Z,1.70
2019-02-18T06:52:14.972Z,1.71
2019-02-18T06:54:42.785Z,1.74
2019-02-18T06:57:45.030Z,1.79
2019-02-18T07:00:32.481Z,1.81
2019-02-18T07:03:25.564Z,1.83
2019-02-18T07:06:04.819Z,1.86
2019-02-18T07:08:56.107Z,1.87
2019-02-18T07:11:37.247Z,1.91
2019-02-18T07:14:12.046Z,1.96
2019-02-18T07:16:40.640Z,2.01
2019-02-18T07:19:08.448Z,2.07
2019-02-18T07:21:36.304Z,2.08
2019-02-18T07:24:04.168Z,2.12
2019-02-18T07:26:32.080Z,2.19
2019-02-18T07:28:59.823Z,2.25
2019-02-18T07:31:27.692Z,2.29
2019-02-18T07:33:56.031Z,2.36
2019-02-18T07:36:24.664Z,2.43
2019-02-18T07:38:52.408Z,2.47
2019-02-18T07:41:20.304Z,2.53
2019-02-18T07:43:48.576Z,2.60
2019-02-18T07:46:17.207Z,2.65
2019-02-18T07:48:44.972Z,2.72
2019-02-18T07:51:14.156Z,2.77
2019-02-18T07:53:42.018Z,2.83
2019-02-18T07:56:09.788Z,2.77
2019-02-18T07:58:37.701Z,2.82
2019-02-18T08:01:05.525Z,2.85
2019-02-18T08:03:33.351Z,2.91
2019-02-18T08:06:01.226Z,2.98
2019-02-18T08:08:29.156Z,3.10
2019-02-18T08:10:57.031Z,3.25
2019-02-18T08:13:26.751Z,3.30
2019-02-18T08:16:02.151Z,3.40
2019-02-18T08:18:30.108Z,3.48
2019-02-18T08:20:57.940Z,3.63
2019-02-18T08:23:26.563Z,3.72
2019-02-18T08:25:54.333Z,3.86
2019-02-18T08:28:22.253Z,3.97
2019-02-18T08:30:50.056Z,4.07
2019-02-18T08:33:17.927Z,4.19
2019-02-18T08:35:45.657Z,4.32
2019-02-18T08:38:13.450Z,4.48
2019-02-18T08:40:41.204Z,4.63
2019-02-18T08:43:09.229Z,4.78
2019-02-18T08:45:36.987Z,4.86
2019-02-18T08:48:05.028Z,4.99
2019-02-18T08:50:32.878Z,5.11
2019-02-18T08:53:00.794Z,5.26
2019-02-18T08:55:28.635Z,5.36
2019-02-18T08:57:56.541Z,5.48
2019-02-18T09:00:24.403Z,5.57
2019-02-18T09:02:52.365Z,5.72
2019-02-18T09:05:20.433Z,5.85
2019-02-18T09:07:48.491Z,6.00
2019-02-18T09:10:16.241Z,6.15
2019-02-18T09:12:44.084Z,6.28
2019-02-18T09:15:14.124Z,6.47
2019-02-18T09:17:42.001Z,6.59
2019-02-18T09:20:10.013Z,6.98
2019-02-18T09:22:53.293Z,7.20
2019-02-18T09:25:23.846Z,7.23
2019-02-18T09:27:51.787Z,7.33
2019-02-18T09:30:23.820Z,7.42
2019-02-18T09:32:51.745Z,7.47
2019-02-18T09:35:19.553Z,7.53
2019-02-18T09:37:47.404Z,7.68
2019-02-18T09:40:15.337Z,7.78
2019-02-18T09:42:43.213Z,7.86
2019-02-18T09:45:14.554Z,7.94
2019-02-18T09:47:41.896Z,8.07
2019-02-18T09:50:09.955Z,8.14
2019-02-18T09:52:37.911Z,8.24
2019-02-18T09:55:06.545Z,8.35
2019-02-18T09:57:34.334Z,8.44
2019-02-18T10:00:02.449Z,8.53
2019-02-18T10:02:30.225Z,8.62
2019-02-18T10:04:58.136Z,8.76
2019-02-18T10:07:26.126Z,8.83
2019-02-18T10:09:53.970Z,8.91
2019-02-18T10:12:21.956Z,8.94
2019-02-18T10:14:49.834Z,9.07
2019-02-18T10:17:17.770Z,9.16
2019-02-18T10:19:47.048Z,9.27
2019-02-18T10:22:14.902Z,9.33
2019-02-18T10:24:50.726Z,9.38
2019-02-18T10:27:12.871Z,9.48
2019-02-18T10:29:40.799Z,9.60
2019-02-18T10:32:08.693Z,9.69
2019-02-18T10:34:37.521Z,9.80
2019-02-18T10:37:05.378Z,9.94
2019-02-18T10:39:33.329Z,10.03
2019-02-18T10:42:01.366Z,10.12
2019-02-18T10:44:29.572Z,10.23
2019-02-18T10:46:57.480Z,10.30
2019-02-18T10:49:25.355Z,10.44
2019-02-18T10:51:55.226Z,10.58
2019-02-18T10:54:23.198Z,10.74
2019-02-18T10:56:51.123Z,10.88
2019-02-18T10:59:18.995Z,11.03
2019-02-18T11:01:46.809Z,11.19
2019-02-18T11:04:14.554Z,11.37
2019-02-18T11:06:42.584Z,11.56
2019-02-18T11:09:11.234Z,11.76
2019-02-18T11:11:39.070Z,11.93
2019-02-18T11:14:06.938Z,12.10
2019-02-18T11:16:34.955Z,12.32
2019-02-18T11:19:02.933Z,12.53
2019-02-18T11:21:30.825Z,12.70
2019-02-18T11:23:58.707Z,12.96
2019-02-18T11:26:26.718Z,13.20
2019-02-18T11:28:54.580Z,13.42
2019-02-18T11:31:22.510Z,13.58
2019-02-18T11:33:50.335Z,13.74
2019-02-18T11:36:18.352Z,13.89
2019-02-18T11:38:46.111Z,14.17
2019-02-18T11:41:14.035Z,14.38
2019-02-18T11:43:41.767Z,14.55
2019-02-18T11:46:09.569Z,14.72
2019-02-18T11:48:37.728Z,14.95
2019-02-18T11:51:05.727Z,15.14
2019-02-18T11:53:33.491Z,15.33
2019-02-18T11:56:01.840Z,15.49
2019-02-18T11:58:29.618Z,15.72
2019-02-18T12:00:57.377Z,15.87
2019-02-18T12:03:25.609Z,16.23
2019-02-18T12:05:53.396Z,16.23
2019-02-18T12:08:21.306Z,16.33
2019-02-18T12:10:49.331Z,16.71
2019-02-18T12:13:17.134Z,16.71
2019-02-18T12:15:44.900Z,16.83
2019-02-18T12:18:13.853Z,17.03
2019-02-18T12:20:41.877Z,17.03
2019-02-18T12:23:09.799Z,17.14
2019-02-18T12:25:41.993Z,17.28
2019-02-18T12:28:09.784Z,17.28
2019-02-18T12:30:37.730Z,17.23
2019-02-18T12:33:05.618Z,17.36
2019-02-18T12:35:34.694Z,17.49
2019-02-18T12:38:03.127Z,17.54
2019-02-18T12:40:30.869Z,17.63
2019-02-18T12:42:58.651Z,17.76
2019-02-18T12:45:27.006Z,17.83
2019-02-18T12:47:55.018Z,17.95
2019-02-18T12:50:22.858Z,18.17
2019-02-18T12:52:51.067Z,18.17
2019-02-18T12:55:19.035Z,18.28
2019-02-18T12:57:47.130Z,18.36
2019-02-18T13:00:15.588Z,18.53
2019-02-18T13:02:45.060Z,18.55
2019-02-18T13:05:14.009Z,18.75
2019-02-18T13:07:42.711Z,18.94
2019-02-18T13:10:11.484Z,18.96
2019-02-18T13:12:39.785Z,19.23
2019-02-18T13:15:09.523Z,19.32
2019-02-18T13:17:37.570Z,19.34
2019-02-18T13:20:07.588Z,19.58
2019-02-18T13:22:35.518Z,19.64
2019-02-18T13:25:03.453Z,19.62
2019-02-18T13:27:34.407Z,19.63
2019-02-18T13:30:04.208Z,19.79
2019-02-18T13:32:32.055Z,19.87
2019-02-18T13:34:59.961Z,20.08
2019-02-18T13:37:27.855Z,20.09
2019-02-18T13:39:55.909Z,20.18
2019-02-18T13:42:23.670Z,20.25
2019-02-18T13:44:51.493Z,20.22
2019-02-18T13:47:19.674Z,20.21
2019-02-18T13:49:47.415Z,20.24
2019-02-18T13:52:15.315Z,20.20
2019-02-18T13:54:43.046Z,20.25
2019-02-18T13:57:11.006Z,20.45
2019-02-18T13:59:38.798Z,20.48
2019-02-18T14:02:07.243Z,20.43
2019-02-18T14:04:35.446Z,20.65
2019-02-18T14:07:03.443Z,20.75
2019-02-18T14:09:31.335Z,20.73
2019-02-18T14:11:59.161Z,20.66
2019-02-18T14:14:26.966Z,20.62
2019-02-18T14:16:54.822Z,20.76
2019-02-18T14:19:22.835Z,20.62
2019-02-18T14:21:51.382Z,20.70
2019-02-18T14:24:19.388Z,20.60
2019-02-18T14:26:47.113Z,20.40
2019-02-18T14:29:15.007Z,20.41
2019-02-18T14:31:43.684Z,20.15
2019-02-18T14:34:11.742Z,20.28
2019-02-18T14:36:40.066Z,20.29
2019-02-18T14:39:11.060Z,20.34
2019-02-18T14:41:38.882Z,20.53
2019-02-18T14:44:07.664Z,20.48
2019-02-18T14:46:35.488Z,20.31
2019-02-18T14:49:03.509Z,20.22
2019-02-18T14:51:31.240Z,20.18
2019-02-18T14:53:59.232Z,20.27
2019-02-18T14:56:27.087Z,20.26
2019-02-18T14:58:55.407Z,20.31
2019-02-18T15:01:23.271Z,20.28
2019-02-18T15:03:51.358Z,20.26
2019-02-18T15:06:19.372Z,20.13
2019-02-18T15:08:47.210Z,20.08
2019-02-18T15:11:14.977Z,20.12
2019-02-18T15:13:42.739Z,20.01
2019-02-18T15:16:10.523Z,19.83
2019-02-18T15:18:38.391Z,19.79
2019-02-18T15:21:07.404Z,19.64
2019-02-18T15:23:35.171Z,19.65
2019-02-18T15:26:03.476Z,19.49
2019-02-18T15:28:31.296Z,19.35
2019-02-18T15:30:59.211Z,19.36
2019-02-18T15:33:27.004Z,19.10
2019-02-18T15:35:55.911Z,18.98
2019-02-18T15:38:23.841Z,19.01
2019-02-18T15:40:51.741Z,19.01
2019-02-18T15:43:19.999Z,18.93
2019-02-18T15:45:47.889Z,18.93
2019-02-18T15:48:15.821Z,18.83
2019-02-18T15:50:43.911Z,18.42
2019-02-18T15:53:11.761Z,18.29
2019-02-18T15:55:40.977Z,18.06
2019-02-18T15:58:09.209Z,17.83
2019-02-18T16:00:37.509Z,17.73
2019-02-18T16:03:05.481Z,17.59
2019-02-18T16:05:33.564Z,17.40
2019-02-18T16:08:01.302Z,17.26
2019-02-18T16:10:29.206Z,17.03
2019-02-18T16:12:57.173Z,16.90
2019-02-18T16:15:25.391Z,16.80
2019-02-18T16:17:53.242Z,16.74
2019-02-18T16:20:21.047Z,16.62
2019-02-18T16:22:48.838Z,16.54
2019-02-18T16:25:18.732Z,16.42
2019-02-18T16:27:46.862Z,16.31
2019-02-18T16:30:14.890Z,16.23
2019-02-18T16:32:43.102Z,16.15
2019-02-18T16:35:11.410Z,16.10
2019-02-18T16:37:39.810Z,16.02
2019-02-18T16:40:09.907Z,15.92
2019-02-18T16:42:37.952Z,15.86
2019-02-18T16:45:07.061Z,15.77
2019-02-18T16:47:34.973Z,15.69
2019-02-18T16:50:02.971Z,15.61
2019-02-18T16:52:30.805Z,15.50
2019-02-18T16:54:58.656Z,15.43
2019-02-18T16:57:26.446Z,15.32
2019-02-18T16:59:54.286Z,15.21
2019-02-18T17:02:22.165Z,15.13
2019-02-18T17:04:50.062Z,15.04
2019-02-18T17:07:17.886Z,14.95
2019-02-18T17:09:45.629Z,14.87
2019-02-18T17:12:14.147Z,14.78
2019-02-18T17:14:41.959Z,14.68
2019-02-18T17:17:09.806Z,14.55
2019-02-18T17:19:37.552Z,14.44
2019-02-18T17:22:05.424Z,14.31
2019-02-18T17:24:33.351Z,14.23
2019-02-18T17:27:01.301Z,14.52
2019-02-18T17:29:30.067Z,14.91
2019-02-18T17:31:57.942Z,15.01
2019-02-18T17:34:25.865Z,14.76
2019-02-18T17:36:53.899Z,14.55
2019-02-18T17:39:21.658Z,14.32
2019-02-18T17:41:50.204Z,14.12
2019-02-18T17:44:20.371Z,13.91
2019-02-18T17:46:48.007Z,13.71
2019-02-18T17:49:15.951Z,13.71
2019-02-18T17:51:43.833Z,13.56
2019-02-18T17:54:12.009Z,13.29
2019-02-18T17:56:39.806Z,13.29
2019-02-18T17:59:08.365Z,13.18
2019-02-18T18:01:36.265Z,13.14
2019-02-18T18:04:04.289Z,13.02
2019-02-18T18:06:32.322Z,12.91
2019-02-18T18:09:00.217Z,12.86
2019-02-18T18:11:28.380Z,12.79
2019-02-18T18:13:56.318Z,12.70
2019-02-18T18:16:24.085Z,12.59
2019-02-18T18:18:51.947Z,12.50
2019-02-18T18:21:19.809Z,12.38
2019-02-18T18:23:47.765Z,12.24
2019-02-18T18:26:15.638Z,12.18
2019-02-18T18:28:44.485Z,12.15
2019-02-18T18:31:12.271Z,12.08
2019-02-18T18:33:40.094Z,12.03
2019-02-18T18:36:08.018Z,12.02
2019-02-18T18:38:38.686Z,12.00
2019-02-18T18:41:06.617Z,11.96
2019-02-18T18:43:34.832Z,11.87
2019-02-18T18:46:02.828Z,11.68
2019-02-18T18:48:30.768Z,11.63
2019-02-18T18:50:58.598Z,11.63
2019-02-18T18:53:27.414Z,11.54
2019-02-18T18:55:55.223Z,11.30
2019-02-18T18:58:23.027Z,11.30
2019-02-18T19:00:51.107Z,11.47
2019-02-18T19:03:18.892Z,11.92
2019-02-18T19:05:48.112Z,11.90
2019-02-18T19:08:16.031Z,11.43
2019-02-18T19:10:43.991Z,11.43
2019-02-18T19:13:11.852Z,11.28
2019-02-18T19:15:40.188Z,11.05
2019-02-18T19:18:08.196Z,10.80
2019-02-18T19:20:36.103Z,10.80
2019-02-18T19:23:03.981Z,10.73
2019-02-18T19:25:31.988Z,10.62
2019-02-18T19:27:59.770Z,10.54
2019-02-18T19:30:28.543Z,10.54
2019-02-18T19:32:56.306Z,10.46
2019-02-18T19:35:24.438Z,10.37
2019-02-18T19:37:52.310Z,10.27
2019-02-18T19:40:31.942Z,10.22
2019-02-18T19:42:59.985Z,10.14
2019-02-18T19:45:27.877Z,10.03
2019-02-18T19:47:55.982Z,10.03
2019-02-18T19:50:23.798Z,10.06
2019-02-18T19:52:51.567Z,10.00
2019-02-18T19:55:19.515Z,9.88
2019-02-18T19:57:47.564Z,9.81
2019-02-18T20:00:17.322Z,9.71
2019-02-18T20:02:45.333Z,9.64
2019-02-18T20:05:13.402Z,9.55
2019-02-18T20:07:41.354Z,9.39
2019-02-18T20:10:09.917Z,9.52
2019-02-18T20:12:37.857Z,9.54
2019-02-18T20:15:06.020Z,9.54
2019-02-18T20:17:33.808Z,9.56
2019-02-18T20:20:01.850Z,9.62
2019-02-18T20:22:29.793Z,9.56
2019-02-18T20:24:57.776Z,9.42
2019-02-18T20:27:25.722Z,9.14
2019-02-18T20:29:53.561Z,9.14
2019-02-18T20:32:21.888Z,9.03
2019-02-18T20:34:49.920Z,8.89
2019-02-18T20:37:17.910Z,8.82
2019-02-18T20:39:45.869Z,8.79
2019-02-18T20:42:17.108Z,8.70
2019-02-18T20:44:45.177Z,8.87
2019-02-18T20:47:13.398Z,9.57
2019-02-18T20:49:41.283Z,10.24
2019-02-18T20:52:09.288Z,10.76
2019-02-18T20:54:38.089Z,11.02
2019-02-18T20:57:06.400Z,10.60
2019-02-18T20:59:34.420Z,10.12
2019-02-18T21:02:02.592Z,9.74
2019-02-18T21:04:31.083Z,9.44
2019-02-18T21:06:59.035Z,9.16
2019-02-18T21:09:26.994Z,8.94
2019-02-18T21:11:54.813Z,8.80
2019-02-18T21:14:22.704Z,8.64
2019-02-18T21:16:50.732Z,8.47
2019-02-18T21:19:19.011Z,8.34
2019-02-18T21:21:46.988Z,8.26
2019-02-18T21:24:15.013Z,8.18
2019-02-18T21:26:42.933Z,7.98
2019-02-18T21:29:11.767Z,7.82
2019-02-18T21:31:40.982Z,7.73
2019-02-18T21:34:09.056Z,7.72
2019-02-18T21:36:37.389Z,7.68
2019-02-18T21:39:11.888Z,7.69
2019-02-18T21:41:40.264Z,7.63
2019-02-18T21:44:08.321Z,7.55
2019-02-18T21:46:36.388Z,7.52
2019-02-18T21:49:04.362Z,7.46
2019-02-18T21:51:33.347Z,7.44
2019-02-18T21:54:01.500Z,7.36
2019-02-18T21:56:29.760Z,7.30
2019-02-18T21:58:57.821Z,7.23
2019-02-18T22:01:25.862Z,7.18
2019-02-18T22:03:53.792Z,7.11
2019-02-18T22:06:22.143Z,6.99
2019-02-18T22:08:49.986Z,6.93
2019-02-18T22:11:17.960Z,6.88
2019-02-18T22:13:45.787Z,6.84
2019-02-18T22:16:17.920Z,6.80
2019-02-18T22:18:45.876Z,6.78
2019-02-18T22:21:13.734Z,6.74
2019-02-18T22:23:42.078Z,6.67
2019-02-18T22:26:10.057Z,6.62
2019-02-18T22:28:37.955Z,6.58
2019-02-18T22:31:05.912Z,6.54
2019-02-18T22:33:33.725Z,6.67
2019-02-18T22:36:01.484Z,6.73
2019-02-18T22:38:29.495Z,6.83
2019-02-18T22:40:57.448Z,6.80
2019-02-18T22:43:25.290Z,6.74
2019-02-18T22:45:53.089Z,6.57
2019-02-18T22:48:21.044Z,6.49
2019-02-18T22:50:49.008Z,6.39
2019-02-18T22:53:17.750Z,6.29
2019-02-18T22:55:45.802Z,6.21
2019-02-18T22:58:13.810Z,6.10
2019-02-18T23:00:59.595Z,6.01
2019-02-18T23:03:27.669Z,5.91
2019-02-18T23:05:55.658Z,5.82
2019-02-18T23:08:23.592Z,5.75
2019-02-18T23:10:51.637Z,5.70
2019-02-18T23:13:19.862Z,5.63
2019-02-18T23:15:47.815Z,5.57
2019-02-18T23:18:15.814Z,5.48
2019-02-18T23:20:43.621Z,5.42
2019-02-18T23:23:11.521Z,5.37
2019-02-18T23:25:39.553Z,5.33
2019-02-18T23:28:07.428Z,5.29
2019-02-18T23:30:35.845Z,5.28
2019-02-18T23:33:03.832Z,5.26
2019-02-18T23:35:31.758Z,5.21
2019-02-18T23:37:59.768Z,5.15
2019-02-18T23:40:27.597Z,5.09
2019-02-18T23:42:55.458Z,5.04
2019-02-18T23:45:23.373Z,5.02
2019-02-18T23:47:51.153Z,4.97
2019-02-18T23:50:21.473Z,4.96
2019-02-18T23:52:50.165Z,4.92
2019-02-18T23:55:18.009Z,4.88
2019-02-18T23:57:45.906Z,4.88
